Time;durP1;ratioP1;P1;durP2;ratioP2;P2;SDS_P1;SDS_P2;PMS_P1;PMS_P2;Temp;Humidity;BMP_temperature;BMP_pressure;BME280_temperature;BME280_humidity;BME280_pressure;Samples;Min_cycle;Max_cycle;Signal;HPM_P1;HPM_P2
2021/03/11 00:00:15;;;;;;;28.75;11.60;;;6.20;99.90;;;;;;5055191;28;20538;-74
2021/03/11 00:02:41;;;;;;;28.90;12.00;;;6.20;99.90;;;;;;5053371;28;20028;-74
2021/03/11 00:05:10;;;;;;;39.10;12.10;;;6.20;99.90;;;;;;5054477;28;20027;-74
2021/03/11 00:07:36;;;;;;;23.27;8.93;;;6.20;99.90;;;;;;5053118;28;20116;-74
2021/03/11 00:10:03;;;;;;;26.58;11.68;;;6.30;99.90;;;;;;5054518;28;20025;-74
2021/03/11 00:12:28;;;;;;;25.80;11.38;;;6.40;99.90;;;;;;5053794;28;20107;-74
2021/03/11 00:14:54;;;;;;;23.75;9.85;;;6.30;99.90;;;;;;5053143;28;20116;-74
2021/03/11 00:17:19;;;;;;;24.10;9.40;;;6.40;99.90;;;;;;5054653;28;20025;-74
2021/03/11 00:19:45;;;;;;;24.65;10.02;;;6.40;99.90;;;;;;5052462;28;20029;-73
2021/03/11 00:22:11;;;;;;;23.77;9.45;;;6.50;99.90;;;;;;5053802;28;20033;-73
2021/03/11 00:24:37;;;;;;;27.25;10.18;;;6.50;99.90;;;;;;5054230;28;20099;-73
2021/03/11 00:27:02;;;;;;;19.67;9.32;;;6.50;99.90;;;;;;5049667;28;20476;-73
2021/03/11 00:29:28;;;;;;;20.17;9.07;;;6.50;99.90;;;;;;5054133;28;20555;-73
2021/03/11 00:31:55;;;;;;;24.88;11.15;;;6.60;99.90;;;;;;5053920;28;20040;-73
2021/03/11 00:34:20;;;;;;;23.08;8.88;;;6.60;99.90;;;;;;5054680;28;20028;-73
2021/03/11 00:36:46;;;;;;;21.02;8.38;;;6.60;99.90;;;;;;5052556;28;20479;-73
2021/03/11 00:39:13;;;;;;;16.27;7.55;;;6.70;99.90;;;;;;5054285;28;20021;-73
2021/03/11 00:41:38;;;;;;;22.08;8.20;;;6.70;99.90;;;;;;5053584;28;20032;-73
2021/03/11 00:44:04;;;;;;;21.85;9.40;;;6.70;99.90;;;;;;5054680;28;20039;-73
2021/03/11 00:46:29;;;;;;;18.63;9.13;;;6.80;99.90;;;;;;5054169;28;20028;-73
2021/03/11 00:48:55;;;;;;;18.17;8.32;;;6.80;99.90;;;;;;5054402;28;20053;-73
2021/03/11 00:51:21;;;;;;;15.23;6.78;;;6.80;99.90;;;;;;5053853;28;20079;-73
2021/03/11 00:53:46;;;;;;;15.32;6.63;;;6.80;99.90;;;;;;5054365;28;20029;-73
2021/03/11 00:56:12;;;;;;;20.67;7.47;;;6.90;99.90;;;;;;5052366;28;20017;-73
2021/03/11 00:58:38;;;;;;;19.20;9.30;;;6.90;99.90;;;;;;5054047;28;20029;-73
2021/03/11 01:01:04;;;;;;;18.95;9.00;;;6.90;99.90;;;;;;5050352;28;20089;-72
2021/03/11 01:03:30;;;;;;;20.08;8.93;;;6.90;99.90;;;;;;5053733;28;20056;-73
2021/03/11 01:05:55;;;;;;;17.52;8.05;;;6.90;99.90;;;;;;5088981;22;20077;-72
2021/03/11 01:08:21;;;;;;;23.42;9.07;;;6.90;99.90;;;;;;4994433;28;20026;-72
2021/03/11 01:10:46;;;;;;;17.58;7.70;;;6.90;99.90;;;;;;4993061;28;20037;-72
2021/03/11 01:13:12;;;;;;;18.02;8.30;;;6.90;99.90;;;;;;5040347;22;20508;-72
2021/03/11 01:15:43;;;;;;;20.80;9.02;;;6.90;99.90;;;;;;5016327;28;20025;-72
2021/03/11 01:18:10;;;;;;;23.10;9.30;;;6.90;99.90;;;;;;5016114;28;20119;-72
2021/03/11 01:20:36;;;;;;;21.58;9.15;;;6.90;99.90;;;;;;5015796;28;20017;-73
2021/03/11 01:23:27;;;;;;;22.77;8.88;;;6.90;99.90;;;;;;5032342;28;20030;-73
2021/03/11 01:25:52;;;;;;;21.48;9.35;;;6.90;99.90;;;;;;5016210;28;20017;-73
2021/03/11 01:28:18;;;;;;;18.27;8.23;;;6.90;99.90;;;;;;5033492;28;20104;-73
2021/03/11 01:30:43;;;;;;;20.23;9.32;;;6.90;99.90;;;;;;5015842;28;20021;-72
2021/03/11 01:33:09;;;;;;;20.30;8.00;;;6.90;99.90;;;;;;5049509;22;20136;-72
2021/03/11 01:35:34;;;;;;;22.73;9.98;;;6.90;99.90;;;;;;5033814;28;20030;-72
2021/03/11 01:38:00;;;;;;;20.05;9.10;;;6.90;99.90;;;;;;5015787;28;20514;-73
2021/03/11 01:40:26;;;;;;;18.20;8.45;;;7.00;99.90;;;;;;5033474;28;20029;-73
2021/03/11 01:42:51;;;;;;;21.75;8.52;;;7.00;99.90;;;;;;5031112;28;20034;-73
2021/03/11 01:45:18;;;;;;;22.27;9.48;;;7.00;99.90;;;;;;5015637;28;20041;-72
2021/03/11 01:47:44;;;;;;;19.65;8.40;;;7.00;99.90;;;;;;5033778;28;20376;-72
2021/03/11 01:50:10;;;;;;;20.67;8.52;;;7.10;99.90;;;;;;5033858;28;20028;-73
2021/03/11 01:52:36;;;;;;;20.40;8.73;;;7.20;99.90;;;;;;5033692;28;20030;-73
2021/03/11 01:55:03;;;;;;;17.90;8.68;;;7.20;99.90;;;;;;5037646;28;20457;-73
2021/03/11 01:57:29;;;;;;;17.95;8.15;;;7.20;99.90;;;;;;5037146;28;20108;-72
2021/03/11 01:59:54;;;;;;;15.48;7.93;;;7.30;99.90;;;;;;5037438;28;20125;-72
2021/03/11 02:02:20;;;;;;;18.17;9.13;;;7.30;99.90;;;;;;5037699;28;20353;-72
2021/03/11 02:04:46;;;;;;;20.25;8.02;;;7.30;99.90;;;;;;5037347;28;20026;-72
2021/03/11 02:07:12;;;;;;;15.98;7.45;;;7.30;99.90;;;;;;5019818;28;20017;-73
2021/03/11 02:09:37;;;;;;;17.23;7.93;;;7.30;99.90;;;;;;5036762;28;20076;-74
2021/03/11 02:12:28;;;;;;;17.60;8.23;;;7.30;99.90;;;;;;5037354;28;20036;-72
2021/03/11 02:15:09;;;;;;;16.45;8.40;;;7.40;99.90;;;;;;5052647;22;20073;-74
2021/03/11 02:18:02;;;;;;;17.50;7.75;;;7.40;99.90;;;;;;5019184;28;20184;-73
2021/03/11 02:20:48;;;;;;;18.55;8.00;;;7.40;99.90;;;;;;5006056;28;20040;-73
2021/03/11 02:23:20;;;;;;;14.50;6.68;;;7.40;99.90;;;;;;5018373;28;20388;-73
2021/03/11 02:25:56;;;;;;;18.55;8.13;;;7.40;99.90;;;;;;5018911;28;20037;-73
2021/03/11 02:28:29;;;;;;;17.88;8.55;;;7.40;99.90;;;;;;5018434;28;20498;-73
2021/03/11 02:30:56;;;;;;;16.52;8.20;;;7.50;99.90;;;;;;5078954;23;20055;-74
2021/03/11 02:33:24;;;;;;;19.60;7.88;;;7.40;99.90;;;;;;5084103;22;20338;-73
2021/03/11 02:35:52;;;;;;;19.13;8.50;;;7.50;99.90;;;;;;5036570;28;20120;-72
2021/03/11 02:38:20;;;;;;;15.60;7.68;;;7.40;99.90;;;;;;5036998;28;20071;-73
2021/03/11 02:40:48;;;;;;;20.63;8.15;;;7.50;99.90;;;;;;5037000;28;20032;-73
2021/03/11 02:43:14;;;;;;;16.42;6.90;;;7.50;99.90;;;;;;5036780;28;20032;-73
2021/03/11 02:45:41;;;;;;;17.50;7.63;;;7.60;99.90;;;;;;5036695;28;20025;-72
2021/03/11 02:48:10;;;;;;;17.33;8.40;;;7.60;99.90;;;;;;5035880;28;20049;-72
2021/03/11 02:50:37;;;;;;;16.85;7.80;;;7.60;99.90;;;;;;5036501;28;20059;-72
2021/03/11 02:53:06;;;;;;;16.27;7.90;;;7.60;99.90;;;;;;5036047;28;20031;-73
2021/03/11 02:55:33;;;;;;;;;;;7.60;99.90;;;;;;5020328;28;20499;-72
2021/03/11 02:58:00;;;;;;;20.13;9.80;;;7.60;99.90;;;;;;5035903;28;19932;-72
2021/03/11 03:00:27;;;;;;;17.63;8.35;;;7.60;99.90;;;;;;5019011;28;20431;-73
2021/03/11 03:02:54;;;;;;;18.20;8.00;;;7.60;99.90;;;;;;5036025;28;20028;-72
2021/03/11 03:05:22;;;;;;;18.35;8.02;;;7.60;99.90;;;;;;5018030;28;20425;-72
2021/03/11 03:07:49;;;;;;;20.60;8.30;;;7.60;99.90;;;;;;5018594;28;20017;-72
2021/03/11 03:10:20;;;;;;;17.65;8.43;;;7.70;99.90;;;;;;5017844;28;20052;-73
2021/03/11 03:12:49;;;;;;;18.35;8.40;;;7.70;99.90;;;;;;5035934;28;20029;-72
2021/03/11 03:15:18;;;;;;;19.83;8.43;;;7.70;99.90;;;;;;5018529;28;20021;-73
2021/03/11 03:17:48;;;;;;;21.95;8.85;;;7.80;99.90;;;;;;5036280;28;20025;-73
2021/03/11 03:20:15;;;;;;;19.00;8.05;;;7.80;99.90;;;;;;5035446;28;20075;-73
2021/03/11 03:22:41;;;;;;;20.25;7.47;;;7.80;99.90;;;;;;5036189;28;20384;-73
2021/03/11 03:25:11;;;;;;;16.50;7.43;;;7.90;99.90;;;;;;5035184;28;20021;-73
2021/03/11 03:27:37;;;;;;;18.20;7.45;;;7.90;99.90;;;;;;5035495;28;20116;-73
2021/03/11 03:30:12;;;;;;;17.98;8.27;;;7.90;99.90;;;;;;5036282;28;20476;-72
2021/03/11 03:32:38;;;;;;;14.77;7.18;;;8.00;99.90;;;;;;5017736;28;20041;-73
2021/03/11 03:35:07;;;;;;;17.25;7.43;;;8.00;99.90;;;;;;5035327;28;20033;-73
2021/03/11 03:37:33;;;;;;;20.08;8.02;;;8.00;99.90;;;;;;5035293;28;20033;-72
2021/03/11 03:40:01;;;;;;;17.38;7.75;;;8.10;99.90;;;;;;5035596;28;20429;-73
2021/03/11 03:42:29;;;;;;;19.10;7.55;;;8.00;99.90;;;;;;5018081;28;20108;-73
2021/03/11 03:44:58;;;;;;;14.67;7.53;;;8.10;99.90;;;;;;5069668;22;20500;-73
2021/03/11 03:47:24;;;;;;;18.58;7.72;;;8.10;99.90;;;;;;5075337;28;20279;-73
2021/03/11 03:49:49;;;;;;;17.35;8.48;;;8.10;99.90;;;;;;5075449;28;20025;-73
2021/03/11 03:52:15;;;;;;;15.23;7.28;;;8.20;99.90;;;;;;5075196;28;20024;-73
2021/03/11 03:54:43;;;;;;;16.05;7.10;;;8.20;99.90;;;;;;5075350;28;20020;-73
2021/03/11 03:57:20;;;;;;;18.38;7.85;;;8.20;99.90;;;;;;5073783;28;20055;-73
2021/03/11 03:59:50;;;;;;;16.25;7.45;;;8.30;99.90;;;;;;5074939;28;20035;-73
2021/03/11 04:02:17;;;;;;;20.38;8.75;;;8.30;99.90;;;;;;5073791;28;20050;-73
2021/03/11 04:04:44;;;;;;;16.40;8.10;;;8.40;99.90;;;;;;5074897;28;20021;-73
2021/03/11 04:07:13;;;;;;;17.70;9.10;;;8.40;99.90;;;;;;5073472;28;20161;-73
2021/03/11 04:09:39;;;;;;;17.17;7.32;;;8.50;99.90;;;;;;5075115;28;20036;-73
2021/03/11 04:12:08;;;;;;;17.48;8.35;;;8.50;99.90;;;;;;5075167;28;20027;-73
2021/03/11 04:14:36;;;;;;;14.75;7.40;;;8.60;99.90;;;;;;5074988;28;20510;-73
2021/03/11 04:17:02;;;;;;;15.70;7.05;;;8.60;99.90;;;;;;5074406;28;20077;-73
2021/03/11 04:19:29;;;;;;;14.25;7.40;;;8.70;99.90;;;;;;5074353;28;20025;-73
2021/03/11 04:21:57;;;;;;;14.52;7.47;;;8.80;99.90;;;;;;5074273;28;20426;-73
2021/03/11 04:24:23;;;;;;;17.95;9.27;;;8.80;99.90;;;;;;5074483;28;20032;-74
2021/03/11 04:26:49;;;;;;;14.13;7.18;;;8.90;99.90;;;;;;5074243;28;20464;-73
2021/03/11 04:29:15;;;;;;;13.00;6.55;;;8.90;99.90;;;;;;5074256;28;20032;-73
2021/03/11 04:31:41;;;;;;;15.15;7.32;;;8.90;99.90;;;;;;5076858;22;20045;-73
2021/03/11 04:34:08;;;;;;;9.27;4.75;;;8.90;99.90;;;;;;5054301;28;20025;-73
2021/03/11 04:36:34;;;;;;;14.02;6.75;;;9.00;99.90;;;;;;5054293;28;20017;-73
2021/03/11 04:39:01;;;;;;;14.15;7.10;;;9.10;99.90;;;;;;5036181;28;20020;-73
2021/03/11 04:41:27;;;;;;;15.40;7.47;;;9.10;99.90;;;;;;5054935;28;20040;-73
2021/03/11 04:43:55;;;;;;;11.60;5.90;;;9.10;99.90;;;;;;5054367;28;20021;-73
2021/03/11 04:46:21;;;;;;;11.45;5.80;;;9.10;99.90;;;;;;5054439;28;20028;-73
2021/03/11 04:48:48;;;;;;;15.02;5.70;;;9.10;99.90;;;;;;5037334;28;20086;-73
2021/03/11 04:51:16;;;;;;;13.82;5.65;;;9.20;99.90;;;;;;5054401;28;20425;-73
2021/03/11 04:53:42;;;;;;;14.17;6.80;;;9.20;99.90;;;;;;5054638;28;20483;-73
2021/03/11 04:56:10;;;;;;;11.13;6.03;;;9.30;99.90;;;;;;5054524;28;20028;-73
2021/03/11 04:58:40;;;;;;;12.38;6.45;;;9.30;99.90;;;;;;5036352;28;20142;-73
2021/03/11 05:01:16;;;;;;;13.57;5.60;;;9.20;99.90;;;;;;5054231;28;20052;-73
2021/03/11 05:03:45;;;;;;;10.32;5.00;;;9.20;99.90;;;;;;5054202;28;20423;-73
2021/03/11 05:06:12;;;;;;;14.32;6.35;;;9.20;99.90;;;;;;5054437;28;20013;-73
2021/03/11 05:08:39;;;;;;;17.63;7.03;;;9.10;99.90;;;;;;5054206;28;20033;-73
2021/03/11 05:11:05;;;;;;;13.13;6.45;;;9.20;99.90;;;;;;5035878;28;20021;-73
2021/03/11 05:13:30;;;;;;;14.88;6.80;;;9.20;99.90;;;;;;5036238;28;20437;-73
2021/03/11 05:16:00;;;;;;;12.55;6.65;;;9.20;99.90;;;;;;5036199;28;20025;-72
2021/03/11 05:18:27;;;;;;;11.90;5.07;;;9.20;99.90;;;;;;5035621;28;20088;-73
2021/03/11 05:20:53;;;;;;;16.40;6.05;;;9.10;99.90;;;;;;5054069;28;20017;-73
2021/03/11 05:23:19;;;;;;;14.88;5.90;;;9.10;99.90;;;;;;5053876;28;20025;-72
2021/03/11 05:25:46;;;;;;;12.73;5.80;;;9.10;99.90;;;;;;5052999;28;20029;-73
2021/03/11 05:28:12;;;;;;;16.75;6.07;;;9.10;99.90;;;;;;5035584;28;20082;-73
2021/03/11 05:30:38;;;;;;;15.13;6.85;;;9.10;99.90;;;;;;5036055;28;20033;-73
2021/03/11 05:33:04;;;;;;;13.05;5.85;;;9.10;99.90;;;;;;5054040;28;20075;-74
2021/03/11 05:35:29;;;;;;;12.90;6.80;;;9.20;99.90;;;;;;5053627;28;20112;-73
2021/03/11 05:37:56;;;;;;;11.38;5.97;;;9.20;99.90;;;;;;5087883;22;20098;-72
2021/03/11 05:40:23;;;;;;;11.90;5.45;;;9.20;99.90;;;;;;5074073;28;20042;-72
2021/03/11 05:42:51;;;;;;;13.40;6.38;;;9.20;99.90;;;;;;5073459;28;20024;-73
2021/03/11 05:45:18;;;;;;;16.45;5.95;;;9.20;99.90;;;;;;5074108;28;20040;-72
2021/03/11 05:47:45;;;;;;;9.80;5.43;;;9.20;99.90;;;;;;5073976;28;20027;-73
2021/03/11 05:50:13;;;;;;;13.00;5.60;;;9.20;99.90;;;;;;5055498;28;20514;-73
2021/03/11 05:52:39;;;;;;;19.13;6.03;;;9.20;99.90;;;;;;5072973;28;20025;-72
2021/03/11 05:55:06;;;;;;;13.82;6.03;;;9.20;99.90;;;;;;5073537;28;20467;-73
2021/03/11 05:57:33;;;;;;;12.48;6.68;;;9.20;99.90;;;;;;5072548;28;20028;-73
2021/03/11 05:59:59;;;;;;;16.40;5.80;;;9.20;99.90;;;;;;5074391;28;20475;-73
2021/03/11 06:02:26;;;;;;;13.60;7.30;;;9.10;99.90;;;;;;5074849;28;20467;-73
2021/03/11 06:04:55;;;;;;;13.95;6.07;;;9.20;99.90;;;;;;5074118;28;20017;-73
2021/03/11 06:07:24;;;;;;;13.55;6.28;;;9.20;99.90;;;;;;5074370;28;20025;-73
2021/03/11 06:10:04;;;;;;;10.18;3.70;;;9.20;99.90;;;;;;5073639;28;20025;-73
2021/03/11 06:12:30;;;;;;;10.43;4.95;;;9.30;99.90;;;;;;5073443;28;20028;-73
2021/03/11 06:15:02;;;;;;;17.10;5.30;;;9.40;99.90;;;;;;5073601;28;20039;-73
2021/03/11 06:17:33;;;;;;;10.73;4.68;;;9.40;99.90;;;;;;5073861;28;20482;-74
2021/03/11 06:19:59;;;;;;;10.90;5.03;;;9.50;99.90;;;;;;5072359;28;20112;-74
2021/03/11 06:22:25;;;;;;;9.82;3.72;;;9.50;99.90;;;;;;5073528;28;20432;-74
2021/03/11 06:24:51;;;;;;;11.68;3.50;;;9.50;99.90;;;;;;5071880;28;20495;-73
2021/03/11 06:27:17;;;;;;;10.98;4.40;;;9.60;99.90;;;;;;5072784;28;20028;-73
2021/03/11 06:29:42;;;;;;;10.35;3.45;;;9.70;99.90;;;;;;5073450;28;20051;-73
2021/03/11 06:32:09;;;;;;;10.43;4.00;;;9.70;99.90;;;;;;5073257;28;20485;-73
2021/03/11 06:34:42;;;;;;;7.20;3.28;;;9.80;99.90;;;;;;5073639;28;20029;-74
2021/03/11 06:37:15;;;;;;;8.82;3.05;;;9.80;99.90;;;;;;5071571;28;20556;-75
2021/03/11 06:39:42;;;;;;;6.78;2.75;;;9.90;99.90;;;;;;5116374;22;20119;-74
2021/03/11 06:42:09;;;;;;;12.13;3.40;;;9.90;99.90;;;;;;5083194;23;20048;-74
2021/03/11 06:44:43;;;;;;;5.93;2.05;;;10.00;99.90;;;;;;5081340;28;20020;-75
2021/03/11 06:47:11;;;;;;;6.82;1.92;;;10.00;99.90;;;;;;5087625;28;20146;-75
2021/03/11 06:50:02;;;;;;;5.38;1.58;;;10.10;99.90;;;;;;5077192;28;20483;-75
2021/03/11 06:52:28;;;;;;;8.23;1.40;;;10.10;99.90;;;;;;5058665;28;20121;-75
2021/03/11 06:55:04;;;;;;;3.85;1.40;;;10.20;99.90;;;;;;5076428;28;20029;-75
2021/03/11 06:57:34;;;;;;;3.90;0.77;;;10.30;99.90;;;;;;5076189;28;20034;-74
2021/03/11 07:00:02;;;;;;;4.13;0.70;;;10.30;99.90;;;;;;5054773;28;20033;-76
2021/03/11 07:02:28;;;;;;;7.95;0.98;;;10.40;99.90;;;;;;5054414;28;20074;-74
2021/03/11 07:05:10;;;;;;;3.50;0.75;;;10.40;99.90;;;;;;5074674;28;20020;-74
2021/03/11 07:07:38;;;;;;;5.88;0.60;;;10.40;99.90;;;;;;5075691;28;20036;-73
2021/03/11 07:10:05;;;;;;;1.45;0.63;;;10.50;99.90;;;;;;5076687;28;20028;-75
2021/03/11 07:12:53;;;;;;;1.73;0.43;;;10.60;99.90;;;;;;5059098;28;20060;-74
2021/03/11 07:15:21;;;;;;;4.75;0.52;;;10.60;99.90;;;;;;5058762;28;20021;-72
2021/03/11 07:17:48;;;;;;;6.37;0.73;;;10.60;99.90;;;;;;5058766;28;20394;-73
2021/03/11 07:20:19;;;;;;;6.25;1.40;;;10.70;99.90;;;;;;5076440;28;20278;-74
2021/03/11 07:23:05;;;;;;;10.98;0.57;;;10.70;99.90;;;;;;5058543;28;20025;-72
2021/03/11 07:25:35;;;;;;;7.63;0.15;;;10.70;99.90;;;;;;5075785;28;20059;-72
2021/03/11 07:28:02;;;;;;;13.73;0.95;;;10.70;99.90;;;;;;5075804;28;20036;-72
2021/03/11 07:30:30;;;;;;;9.20;0.75;;;10.70;99.90;;;;;;5057931;28;20120;-74
2021/03/11 07:33:01;;;;;;;8.30;0.90;;;10.70;99.90;;;;;;5075745;28;20027;-73
2021/03/11 07:35:31;;;;;;;12.55;1.40;;;10.70;99.90;;;;;;5057516;28;20103;-74
2021/03/11 07:38:00;;;;;;;10.13;0.73;;;10.70;99.90;;;;;;5057771;28;20024;-74
2021/03/11 07:40:27;;;;;;;14.43;1.58;;;10.70;99.90;;;;;;5075899;28;20483;-73
2021/03/11 07:42:52;;;;;;;13.85;1.20;;;10.70;99.90;;;;;;5076527;28;20016;-74
2021/03/11 07:45:18;;;;;;;17.20;1.58;;;10.70;99.90;;;;;;5076582;28;20031;-73
2021/03/11 07:47:44;;;;;;;9.88;1.17;;;10.70;99.90;;;;;;5076180;28;20017;-73
2021/03/11 07:50:14;;;;;;;18.23;2.35;;;10.70;99.90;;;;;;5076120;28;20394;-74
2021/03/11 07:52:41;;;;;;;15.27;1.48;;;10.70;99.90;;;;;;5076300;28;20086;-74
2021/03/11 07:55:08;;;;;;;20.67;1.65;;;10.70;99.90;;;;;;5076471;28;20024;-71
2021/03/11 07:57:41;;;;;;;23.52;1.20;;;10.70;99.90;;;;;;5076311;28;20495;-74
2021/03/11 08:00:10;;;;;;;16.05;1.25;;;10.80;99.90;;;;;;5076044;28;20029;-73
2021/03/11 08:02:38;;;;;;;17.20;1.52;;;10.80;99.90;;;;;;5076390;28;20426;-71
2021/03/11 08:05:04;;;;;;;20.98;2.17;;;10.90;99.90;;;;;;5075630;28;20488;-71
2021/03/11 08:07:30;;;;;;;17.58;2.15;;;10.90;99.90;;;;;;5075545;28;20440;-74
2021/03/11 08:09:58;;;;;;;13.73;1.05;;;10.90;99.90;;;;;;5075180;28;20063;-72
2021/03/11 08:12:28;;;;;;;19.67;2.13;;;10.90;99.90;;;;;;5075411;28;20111;-72
2021/03/11 08:15:02;;;;;;;15.32;1.02;;;11.00;99.90;;;;;;5075623;28;20056;-73
2021/03/11 08:17:37;;;;;;;15.77;0.77;;;11.00;99.90;;;;;;5057393;28;20399;-73
2021/03/11 08:20:07;;;;;;;14.88;0.95;;;11.00;99.90;;;;;;5075255;28;20046;-72
2021/03/11 08:22:51;;;;;;;23.67;1.55;;;11.00;99.90;;;;;;5075423;28;20107;-72
2021/03/11 08:25:33;;;;;;;11.20;0.90;;;11.00;99.90;;;;;;5075054;28;20031;-72
2021/03/11 08:28:23;;;;;;;19.75;3.03;;;11.00;99.90;;;;;;5074916;28;20429;-73
2021/03/11 08:30:53;;;;;;;10.68;1.02;;;11.10;99.90;;;;;;5074611;28;20023;-72
2021/03/11 08:33:18;;;;;;;15.95;2.33;;;11.10;99.40;;;;;;5074832;28;20021;-72
2021/03/11 08:35:45;;;;;;;20.98;2.78;;;11.10;99.90;;;;;;5075020;28;20023;-73
2021/03/11 08:38:20;;;;;;;26.52;3.35;;;11.10;99.60;;;;;;5056656;28;20063;-73
2021/03/11 08:40:46;;;;;;;15.00;0.93;;;11.10;99.00;;;;;;5057137;28;20040;-73
2021/03/11 08:43:31;;;;;;;15.68;1.95;;;11.20;99.90;;;;;;5074906;28;20017;-73
2021/03/11 08:45:57;;;;;;;17.90;0.93;;;11.30;99.10;;;;;;5074720;28;20496;-73
2021/03/11 08:48:23;;;;;;;20.38;2.70;;;11.30;96.50;;;;;;5074979;28;20060;-72
2021/03/11 08:50:50;;;;;;;19.90;3.08;;;11.30;97.20;;;;;;5074945;28;20391;-72
2021/03/11 08:53:38;;;;;;;22.83;2.30;;;11.40;94.20;;;;;;5075110;28;20017;-73
2021/03/11 08:56:16;;;;;;;22.25;2.42;;;11.40;94.70;;;;;;5075172;28;20024;-72
2021/03/11 08:59:03;;;;;;;18.92;2.97;;;11.50;94.10;;;;;;5056943;28;20032;-73
2021/03/11 09:01:31;;;;;;;23.88;1.98;;;11.60;93.70;;;;;;5056191;28;20035;-73
2021/03/11 09:04:00;;;;;;;23.73;2.65;;;11.60;94.40;;;;;;5074315;28;20115;-73
2021/03/11 09:06:51;;;;;;;20.63;1.58;;;11.60;92.50;;;;;;5056758;28;20017;-73
2021/03/11 09:09:17;;;;;;;14.02;1.75;;;11.70;92.30;;;;;;5075233;28;20028;-72
2021/03/11 09:11:53;;;;;;;19.35;1.77;;;11.70;92.50;;;;;;5074787;28;20063;-73
2021/03/11 09:14:21;;;;;;;15.43;1.17;;;11.80;91.70;;;;;;5056701;28;20040;-73
2021/03/11 09:16:47;;;;;;;22.58;1.70;;;11.80;92.00;;;;;;5074311;28;20017;-72
2021/03/11 09:19:14;;;;;;;13.00;1.20;;;11.80;92.00;;;;;;5074524;28;20028;-73
2021/03/11 09:21:40;;;;;;;19.05;1.85;;;11.70;89.90;;;;;;5056373;28;20027;-72
2021/03/11 09:24:14;;;;;;;22.27;1.95;;;11.70;90.10;;;;;;5056757;28;20383;-73
2021/03/11 09:26:40;;;;;;;17.48;2.50;;;11.60;90.50;;;;;;5074976;28;20483;-72
2021/03/11 09:29:06;;;;;;;14.25;1.00;;;11.60;91.80;;;;;;5057095;28;20069;-73
2021/03/11 09:31:31;;;;;;;22.63;2.28;;;11.50;91.00;;;;;;5075183;28;20017;-72
2021/03/11 09:34:00;;;;;;;23.75;2.75;;;11.40;90.80;;;;;;5074670;28;20040;-75
2021/03/11 09:36:26;;;;;;;20.73;2.78;;;11.50;91.40;;;;;;5056336;28;20029;-74
2021/03/11 09:38:58;;;;;;;19.80;2.38;;;11.50;91.40;;;;;;5074385;28;20035;-75
2021/03/11 09:41:28;;;;;;;8.73;0.80;;;11.60;91.20;;;;;;5056131;28;20115;-75
2021/03/11 09:43:53;;;;;;;19.17;1.55;;;11.70;90.20;;;;;;5074128;28;20096;-76
2021/03/11 09:46:22;;;;;;;14.30;1.95;;;11.80;88.70;;;;;;5056025;28;20060;-76
2021/03/11 09:48:52;;;;;;;9.00;1.10;;;11.90;83.50;;;;;;5055816;28;20025;-76
2021/03/11 09:51:23;;;;;;;17.45;2.40;;;11.90;83.80;;;;;;5074088;28;20033;-76
2021/03/11 09:53:58;;;;;;;13.15;1.95;;;11.90;82.70;;;;;;5074037;28;20035;-76
2021/03/11 09:56:26;;;;;;;19.00;1.20;;;11.90;83.50;;;;;;5055915;28;20032;-75
2021/03/11 09:58:59;;;;;;;12.52;2.15;;;11.80;86.10;;;;;;5073629;28;20070;-75
2021/03/11 10:01:25;;;;;;;17.27;1.67;;;11.70;83.60;;;;;;5056051;28;20023;-76
2021/03/11 10:03:51;;;;;;;16.80;2.45;;;11.60;85.20;;;;;;5056503;28;20367;-75
2021/03/11 10:06:18;;;;;;;16.60;1.80;;;11.60;85.60;;;;;;5073205;28;20074;-75
2021/03/11 10:08:44;;;;;;;20.95;1.90;;;11.50;87.00;;;;;;5073495;28;20024;-75
2021/03/11 10:11:21;;;;;;;20.38;2.50;;;11.50;87.80;;;;;;5055629;28;20024;-75
2021/03/11 10:13:49;;;;;;;19.35;3.13;;;11.40;88.60;;;;;;5074511;28;20032;-74
2021/03/11 10:16:19;;;;;;;25.77;1.83;;;11.40;88.80;;;;;;5077125;28;20107;-75
2021/03/11 10:19:07;;;;;;;23.63;2.90;;;11.40;90.00;;;;;;5077069;28;20487;-75
2021/03/11 10:21:48;;;;;;;17.88;1.48;;;11.40;89.30;;;;;;5077579;28;20013;-77
2021/03/11 10:24:36;;;;;;;10.57;2.28;;;11.40;90.30;;;;;;5059449;28;20471;-76
2021/03/11 10:27:04;;;;;;;21.10;2.17;;;11.40;89.20;;;;;;5059085;28;20024;-77
2021/03/11 10:29:32;;;;;;;32.03;2.20;;;11.40;90.30;;;;;;5059189;28;20366;-75
2021/03/11 10:31:59;;;;;;;20.73;2.90;;;11.40;90.30;;;;;;5059722;28;20034;-76
2021/03/11 10:34:28;;;;;;;17.35;1.75;;;11.40;89.50;;;;;;5077781;28;20111;-76
2021/03/11 10:37:00;;;;;;;21.70;2.17;;;11.40;90.30;;;;;;5060146;28;20024;-77
2021/03/11 10:39:26;;;;;;;24.95;3.00;;;11.40;90.80;;;;;;5059644;28;20113;-75
2021/03/11 10:42:10;;;;;;;34.05;2.50;;;11.40;90.60;;;;;;5077007;28;20032;-75
2021/03/11 10:44:39;;;;;;;10.77;1.60;;;11.50;89.70;;;;;;5077573;28;20025;-75
2021/03/11 10:47:16;;;;;;;21.25;1.98;;;11.40;90.10;;;;;;5059304;28;20020;-74
2021/03/11 10:49:42;;;;;;;22.52;3.33;;;11.40;90.00;;;;;;5059078;28;20025;-77
2021/03/11 10:52:12;;;;;;;17.20;1.65;;;11.30;90.00;;;;;;5077055;28;20032;-77
2021/03/11 10:54:41;;;;;;;21.05;3.38;;;11.30;90.30;;;;;;5076798;28;20032;-77
2021/03/11 10:57:11;;;;;;;30.98;3.13;;;11.30;90.40;;;;;;5077126;28;20048;-78
2021/03/11 10:59:58;;;;;;;21.13;1.65;;;11.20;90.40;;;;;;5058842;28;20029;-74
2021/03/11 11:02:28;;;;;;;32.53;6.10;;;11.20;91.00;;;;;;5058874;28;20016;-75
2021/03/11 11:04:56;;;;;;;30.70;1.90;;;11.20;90.60;;;;;;5058441;28;20024;-75
2021/03/11 11:07:23;;;;;;;26.67;4.70;;;11.10;91.70;;;;;;5076855;28;20021;-75
2021/03/11 11:09:49;;;;;;;19.20;1.40;;;11.00;94.40;;;;;;5059156;28;20025;-75
2021/03/11 11:12:17;;;;;;;12.95;1.38;;;10.90;95.60;;;;;;5058408;28;20422;-77
2021/03/11 11:14:44;;;;;;;22.27;2.15;;;10.80;99.50;;;;;;5059015;28;20028;-76
2021/03/11 11:17:11;;;;;;;24.35;2.42;;;10.70;99.90;;;;;;5059165;28;20119;-75
2021/03/11 11:19:38;;;;;;;30.85;2.88;;;10.70;99.90;;;;;;5076635;28;20025;-76
2021/03/11 11:22:04;;;;;;;16.05;2.33;;;10.80;99.90;;;;;;5058926;28;20016;-75
2021/03/11 11:24:29;;;;;;;19.38;2.85;;;10.90;98.00;;;;;;5058142;28;20505;-75
2021/03/11 11:26:56;;;;;;;23.67;3.95;;;11.00;97.90;;;;;;5076201;28;20025;-75
2021/03/11 11:29:23;;;;;;;15.80;1.80;;;11.10;96.80;;;;;;5076331;28;20052;-75
2021/03/11 11:31:50;;;;;;;18.92;2.90;;;11.20;96.40;;;;;;5076741;28;20029;-75
2021/03/11 11:34:16;;;;;;;19.13;2.55;;;11.30;95.70;;;;;;5058402;28;20054;-76
2021/03/11 11:36:42;;;;;;;26.08;2.35;;;11.40;94.00;;;;;;5058108;28;20029;-75
2021/03/11 11:39:09;;;;;;;19.20;1.92;;;11.40;94.80;;;;;;5076088;28;20510;-76
2021/03/11 11:41:37;;;;;;;23.00;1.42;;;11.50;93.50;;;;;;5058121;28;20028;-77
2021/03/11 11:44:06;;;;;;;24.67;1.60;;;11.60;93.30;;;;;;5058521;28;20047;-75
2021/03/11 11:46:32;;;;;;;27.00;1.80;;;11.60;92.60;;;;;;5075881;28;20025;-75
2021/03/11 11:48:58;;;;;;;14.32;1.92;;;11.70;92.90;;;;;;5077999;28;20035;-75
2021/03/11 11:51:24;;;;;;;41.47;2.63;;;11.70;91.90;;;;;;5058333;28;20023;-75
2021/03/11 11:53:51;;;;;;;15.27;2.78;;;11.70;91.80;;;;;;5059215;28;20021;-74
2021/03/11 11:56:16;;;;;;;17.48;1.65;;;11.80;92.50;;;;;;5058067;28;20138;-74
2021/03/11 11:58:44;;;;;;;24.92;1.95;;;11.80;92.30;;;;;;5076024;28;20052;-74
2021/03/11 12:01:11;;;;;;;18.77;2.83;;;11.70;91.90;;;;;;5076479;28;20017;-74
2021/03/11 12:03:37;;;;;;;21.08;1.67;;;11.80;93.10;;;;;;5058108;28;20494;-76
2021/03/11 12:06:06;;;;;;;38.95;3.47;;;11.70;91.80;;;;;;5057602;28;20070;-75
2021/03/11 12:08:32;;;;;;;;;;;11.70;92.40;;;;;;5076107;28;20033;-75
2021/03/11 12:10:57;;;;;;;20.58;1.88;;;11.60;92.10;;;;;;5075739;28;19904;-75
2021/03/11 12:13:23;;;;;;;21.77;2.25;;;11.70;91.80;;;;;;5075853;28;20100;-75
2021/03/11 12:15:48;;;;;;;13.98;1.85;;;11.60;90.70;;;;;;5075692;28;20020;-75
2021/03/11 12:18:14;;;;;;;18.83;2.78;;;11.70;91.10;;;;;;5075300;28;20021;-74
2021/03/11 12:20:40;;;;;;;24.80;1.60;;;11.70;90.70;;;;;;5057617;28;20074;-76
2021/03/11 12:23:06;;;;;;;23.30;2.42;;;11.70;90.20;;;;;;5057914;28;20112;-76
2021/03/11 12:25:32;;;;;;;23.77;1.58;;;11.70;90.30;;;;;;5074916;28;20471;-77
2021/03/11 12:27:58;;;;;;;14.35;0.85;;;11.70;91.30;;;;;;5056844;28;20052;-77
2021/03/11 12:30:27;;;;;;;11.25;1.20;;;11.70;90.00;;;;;;5057029;28;20051;-77
2021/03/11 12:32:53;;;;;;;21.75;2.60;;;11.70;90.80;;;;;;5057046;28;20012;-78
2021/03/11 12:35:19;;;;;;;13.05;0.85;;;11.70;91.20;;;;;;5074937;28;20505;-76
2021/03/11 12:37:44;;;;;;;18.77;2.15;;;11.70;90.80;;;;;;5057442;28;20027;-77
2021/03/11 12:40:11;;;;;;;15.77;2.10;;;11.80;91.30;;;;;;5075674;28;20078;-75
2021/03/11 12:42:36;;;;;;;20.02;2.55;;;11.60;91.00;;;;;;5057220;28;20450;-76
2021/03/11 12:45:03;;;;;;;21.70;1.65;;;11.60;92.00;;;;;;5075227;28;20039;-76
2021/03/11 12:47:29;;;;;;;25.92;3.20;;;11.70;91.90;;;;;;5075236;28;20032;-76
2021/03/11 12:49:54;;;;;;;23.40;1.60;;;11.70;92.20;;;;;;5075393;28;20030;-75